Time;durP1;ratioP1;P1;durP2;ratioP2;P2;SDS_P1;SDS_P2;PMS_P1;PMS_P2;Temp;Humidity;BMP_temperature;BMP_pressure;BME280_temperature;BME280_humidity;BME280_pressure;Samples;Min_cycle;Max_cycle;Signal;HPM_P1;HPM_P2
2022/10/01 00:01:26;;;;;;;50.85;26.12;;;;;;;11.00;99.77;98662.92;2281440;78;20894;-82
2022/10/01 00:04:27;;;;;;;38.98;22.37;;;;;;;11.00;99.84;98662.92;2282122;78;20906;-82
2022/10/01 00:07:27;;;;;;;45.17;25.30;;;;;;;10.97;99.64;98666.81;2282079;78;20922;-83
2022/10/01 00:10:30;;;;;;;36.83;19.90;;;;;;;10.93;99.61;98668.09;2282022;78;20914;-84
2022/10/01 00:13:29;;;;;;;42.75;21.25;;;;;;;10.91;99.69;98661.98;2281921;78;20894;-83
2022/10/01 00:16:28;;;;;;;35.60;19.62;;;;;;;10.92;99.74;98672.44;2282191;78;21238;-83
2022/10/01 00:19:29;;;;;;;35.90;19.05;;;;;;;10.91;99.66;98686.78;2279665;77;21307;-83
2022/10/01 00:22:31;;;;;;;35.60;20.15;;;;;;;10.90;99.89;98683.73;2249737;78;20980;-83
2022/10/01 00:25:30;;;;;;;41.97;21.27;;;;;;;10.94;99.77;98674.63;2249830;78;20904;-83
2022/10/01 00:28:31;;;;;;;40.00;21.70;;;;;;;10.94;99.44;98667.23;2250026;78;21249;-83
2022/10/01 00:31:31;;;;;;;44.15;22.50;;;;;;;10.87;99.29;98661.08;2250032;78;20889;-83
2022/10/01 00:34:31;;;;;;;37.10;20.43;;;;;;;10.83;99.44;98661.92;2249875;78;20892;-82
2022/10/01 00:37:34;;;;;;;42.75;21.60;;;;;;;10.86;99.85;98663.25;2249896;78;20869;-82
2022/10/01 00:40:32;;;;;;;43.98;20.88;;;;;;;10.89;99.70;98659.78;2250026;78;20923;-82
2022/10/01 00:43:32;;;;;;;39.58;20.70;;;;;;;10.92;99.87;98656.77;2250053;78;20876;-83
2022/10/01 00:46:33;;;;;;;37.53;21.23;;;;;;;10.90;99.28;98668.06;2250158;78;21297;-82
2022/10/01 00:49:33;;;;;;;34.30;19.67;;;;;;;10.87;99.55;98670.22;2250048;78;20908;-82
2022/10/01 00:52:33;;;;;;;34.27;18.98;;;;;;;10.89;99.72;98665.01;2249768;78;20963;-82
2022/10/01 00:55:35;;;;;;;33.13;19.45;;;;;;;10.91;99.84;98661.98;2249710;78;20976;-83
2022/10/01 00:58:34;;;;;;;34.27;20.02;;;;;;;10.92;99.74;98675.05;2249988;78;20885;-81
2022/10/01 01:01:35;;;;;;;48.95;28.15;;;;;;;10.90;99.38;98668.06;2249923;78;20915;-81
2022/10/01 01:04:35;;;;;;;37.40;19.35;;;;;;;10.89;99.41;98666.31;2250051;78;20884;-82
2022/10/01 01:07:35;;;;;;;34.00;19.95;;;;;;;10.87;99.41;98656.30;2250060;79;20885;-84
2022/10/01 01:10:36;;;;;;;33.20;19.33;;;;;;;10.88;99.53;98659.34;2249858;78;21272;-82
2022/10/01 01:13:36;;;;;;;27.37;17.55;;;;;;;10.92;99.80;98654.59;2249718;78;20892;-81
2022/10/01 01:16:37;;;;;;;32.25;18.27;;;;;;;10.95;99.74;98651.56;2249798;79;20916;-81
2022/10/01 01:19:37;;;;;;;30.82;19.15;;;;;;;10.96;99.58;98648.09;2250582;77;20936;-82
2022/10/01 01:22:38;;;;;;;34.05;20.77;;;;;;;10.94;99.24;98640.67;2281795;78;21385;-81
2022/10/01 01:25:38;;;;;;;32.80;19.52;;;;;;;10.90;99.10;98637.60;2281840;78;20895;-81
2022/10/01 01:28:38;;;;;;;36.30;20.52;;;;;;;10.89;99.26;98646.73;2281890;78;21037;-82
2022/10/01 01:31:39;;;;;;;37.17;21.62;;;;;;;10.90;99.44;98644.56;2281709;78;21297;-79
2022/10/01 01:34:39;;;;;;;34.07;20.50;;;;;;;10.93;99.72;98649.38;2281700;78;20894;-79
2022/10/01 01:37:40;;;;;;;40.23;21.95;;;;;;;10.95;99.49;98655.92;2281705;78;20902;-79
2022/10/01 01:40:40;;;;;;;36.55;21.73;;;;;;;10.99;99.72;98656.38;2281972;78;20859;-78
2022/10/01 01:43:40;;;;;;;34.53;20.43;;;;;;;11.01;99.53;98646.81;2281536;78;20891;-78
2022/10/01 01:46:41;;;;;;;32.42;20.10;;;;;;;11.02;99.34;98643.34;2281670;78;20930;-78
2022/10/01 01:49:41;;;;;;;41.08;22.60;;;;;;;10.97;99.23;98643.74;2281824;78;20934;-79
2022/10/01 01:52:42;;;;;;;39.48;22.67;;;;;;;10.98;99.18;98644.19;2281246;78;20945;-79
2022/10/01 01:55:42;;;;;;;44.10;23.43;;;;;;;10.98;99.10;98640.27;2281847;78;20929;-78
2022/10/01 01:58:42;;;;;;;43.75;24.00;;;;;;;10.96;99.12;98652.02;2281781;78;20910;-79
2022/10/01 02:01:43;;;;;;;50.40;25.32;;;;;;;10.93;99.17;98649.81;2281495;78;20898;-79
2022/10/01 02:04:43;;;;;;;60.23;27.40;;;;;;;10.90;99.33;98642.83;2281874;78;20979;-79
2022/10/01 02:07:44;;;;;;;68.55;29.77;;;;;;;10.94;99.55;98645.03;2281109;78;20916;-79
2022/10/01 02:10:44;;;;;;;75.10;29.10;;;;;;;10.92;99.52;98651.55;2281116;78;21329;-79
2022/10/01 02:13:44;;;;;;;65.72;29.50;;;;;;;10.90;99.45;98652.40;2281619;78;20890;-79
2022/10/01 02:16:45;;;;;;;79.93;30.30;;;;;;;10.91;99.83;98648.92;2281902;78;20890;-79
2022/10/01 02:19:45;;;;;;;71.77;30.75;;;;;;;10.90;99.70;98649.35;2281052;78;21311;-79
2022/10/01 02:22:46;;;;;;;82.75;32.93;;;;;;;10.87;99.70;98657.59;2248690;78;20991;-80
2022/10/01 02:25:46;;;;;;;73.00;31.07;;;;;;;10.88;99.87;98656.30;2249028;78;20869;-81
2022/10/01 02:28:46;;;;;;;72.20;30.70;;;;;;;10.88;99.97;98655.00;2249636;79;20884;-78
2022/10/01 02:31:47;;;;;;;63.87;30.37;;;;;;;10.90;100.00;98653.70;2249619;79;20928;-79
2022/10/01 02:34:48;;;;;;;67.03;30.90;;;;;;;10.92;99.97;98655.89;2249510;79;20876;-78
2022/10/01 02:37:48;;;;;;;64.80;29.13;;;;;;;10.91;100.00;98656.75;2249496;79;20916;-79
2022/10/01 02:40:48;;;;;;;74.50;31.50;;;;;;;10.91;99.87;98660.67;2249497;79;20890;-79
2022/10/01 02:43:50;;;;;;;63.38;29.82;;;;;;;10.89;100.00;98659.78;2249504;78;20888;-80
2022/10/01 02:46:49;;;;;;;65.05;30.50;;;;;;;10.85;99.83;98655.84;2249978;78;20925;-81
2022/10/01 02:49:49;;;;;;;60.43;29.30;;;;;;;10.83;99.92;98656.70;2249898;78;20912;-82
2022/10/01 02:52:50;;;;;;;54.05;28.02;;;;;;;10.79;99.93;98654.92;2249483;78;20932;-83
2022/10/01 02:55:50;;;;;;;56.02;28.55;;;;;;;10.79;100.00;98653.19;2249690;78;21241;-82
2022/10/01 02:58:51;;;;;;;47.80;26.33;;;;;;;10.79;100.00;98652.31;2249426;78;20873;-83
2022/10/01 03:01:51;;;;;;;47.78;26.45;;;;;;;10.80;100.00;98661.89;2249627;78;20900;-82
2022/10/01 03:04:51;;;;;;;50.10;27.20;;;;;;;10.78;100.00;98664.92;2249613;78;20929;-82
2022/10/01 03:07:52;;;;;;;52.43;27.35;;;;;;;10.77;100.00;98665.36;2249665;78;20885;-82
2022/10/01 03:10:52;;;;;;;51.37;26.85;;;;;;;10.80;100.00;98665.38;2249966;79;21136;-83
2022/10/01 03:13:56;;;;;;;50.52;27.27;;;;;;;10.82;100.00;98670.19;2250149;78;20912;-82
2022/10/01 03:16:56;;;;;;;56.77;28.12;;;;;;;10.82;100.00;98664.97;2250086;79;20869;-82
2022/10/01 03:19:58;;;;;;;48.75;26.60;;;;;;;10.86;100.00;98663.25;2249642;78;20928;-82
2022/10/01 03:22:58;;;;;;;59.45;27.15;;;;;;;10.89;100.00;98661.97;2290558;77;21004;-83
2022/10/01 03:25:59;;;;;;;50.58;25.20;;;;;;;10.92;100.00;98667.22;2291996;78;20897;-83
2022/10/01 03:28:59;;;;;;;53.73;26.40;;;;;;;10.94;100.00;98663.30;2291979;78;20896;-84
2022/10/01 03:32:00;;;;;;;48.00;25.23;;;;;;;10.95;100.00;98668.97;2292171;78;20903;-83
2022/10/01 03:35:00;;;;;;;48.98;25.23;;;;;;;10.96;100.00;98668.11;2292089;78;20908;-83
2022/10/01 03:38:01;;;;;;;51.80;25.72;;;;;;;10.99;100.00;98674.23;2291874;78;21273;-83
2022/10/01 03:41:01;;;;;;;52.65;24.67;;;;;;;10.97;100.00;98673.78;2291794;78;20928;-83
2022/10/01 03:44:04;;;;;;;51.80;27.97;;;;;;;10.97;100.00;98676.39;2292077;78;20896;-82
2022/10/01 03:47:04;;;;;;;55.00;26.45;;;;;;;10.96;100.00;98668.11;2292135;78;20928;-83
2022/10/01 03:50:05;;;;;;;48.63;24.52;;;;;;;10.96;100.00;98670.29;2292151;78;21359;-84
2022/10/01 03:53:05;;;;;;;60.30;27.10;;;;;;;10.96;100.00;98663.77;2291498;78;20959;-82
2022/10/01 03:56:05;;;;;;;49.98;26.60;;;;;;;10.96;100.00;98660.27;2291853;78;20971;-83
2022/10/01 03:59:06;;;;;;;52.65;27.30;;;;;;;11.00;100.00;98662.05;2291561;78;21374;-83
2022/10/01 04:02:06;;;;;;;51.68;26.50;;;;;;;11.00;100.00;98654.21;2292126;78;20884;-84
2022/10/01 04:05:09;;;;;;;52.75;26.60;;;;;;;10.96;100.00;98649.83;2292006;78;20865;-82
2022/10/01 04:08:09;;;;;;;52.17;26.75;;;;;;;10.97;100.00;98654.19;2291864;78;20889;-83
2022/10/01 04:11:10;;;;;;;53.23;26.52;;;;;;;10.97;100.00;98654.19;2291705;78;20963;-81
2022/10/01 04:14:10;;;;;;;63.33;26.52;;;;;;;10.97;100.00;98653.76;2291741;78;21287;-80
2022/10/01 04:17:11;;;;;;;54.30;24.60;;;;;;;10.97;100.00;98656.80;2291307;78;20915;-80
2022/10/01 04:20:11;;;;;;;90.32;45.78;;;;;;;10.97;100.00;98644.62;2290592;78;20929;-79
2022/10/01 04:23:11;;;;;;;55.30;26.57;;;;;;;10.99;100.00;98639.41;2290284;78;20972;-79
2022/10/01 04:26:12;;;;;;;53.92;25.90;;;;;;;10.99;100.00;98649.42;2290941;78;20931;-79
2022/10/01 04:29:12;;;;;;;49.48;25.00;;;;;;;10.97;100.00;98650.27;2290846;78;20915;-80
2022/10/01 04:32:14;;;;;;;50.30;26.27;;;;;;;10.96;100.00;98644.61;2290762;78;20908;-80
2022/10/01 04:35:13;;;;;;;53.05;25.43;;;;;;;11.00;100.00;98642.46;2291862;78;20881;-80
2022/10/01 04:38:13;;;;;;;49.70;25.23;;;;;;;10.97;99.83;98648.97;2291095;78;20900;-80
2022/10/01 04:41:14;;;;;;;46.80;24.43;;;;;;;10.97;100.00;98643.74;2291120;78;21261;-80
2022/10/01 04:44:14;;;;;;;52.58;25.88;;;;;;;10.96;99.85;98636.34;2291184;78;20938;-82
2022/10/01 04:47:15;;;;;;;47.90;25.00;;;;;;;10.98;100.00;98640.27;2291216;78;20873;-82
2022/10/01 04:50:15;;;;;;;52.38;25.37;;;;;;;10.98;99.77;98635.05;2291054;78;21296;-82
2022/10/01 04:53:15;;;;;;;73.57;40.88;;;;;;;10.96;99.55;98636.77;2291374;78;20990;-82
2022/10/01 04:56:16;;;;;;;48.50;28.20;;;;;;;10.98;99.58;98641.57;2291640;78;20971;-81
2022/10/01 04:59:17;;;;;;;48.33;25.80;;;;;;;10.99;99.61;98647.24;2291698;78;20861;-79
2022/10/01 05:02:17;;;;;;;50.15;26.15;;;;;;;11.00;99.36;98648.98;2291948;78;20896;-82
2022/10/01 05:05:17;;;;;;;45.73;25.00;;;;;;;11.01;99.58;98642.90;2291650;78;21248;-82
2022/10/01 05:08:18;;;;;;;53.13;26.80;;;;;;;11.06;99.54;98649.03;2291319;78;20872;-83
2022/10/01 05:11:18;;;;;;;50.78;27.20;;;;;;;11.08;99.18;98657.31;2291597;78;20954;-82
2022/10/01 05:14:20;;;;;;;51.25;26.73;;;;;;;11.06;98.75;98652.95;2291564;78;21221;-83
2022/10/01 05:17:19;;;;;;;53.78;26.25;;;;;;;11.03;98.92;98651.62;2291586;78;20916;-81
2022/10/01 05:20:19;;;;;;;44.93;24.65;;;;;;;11.07;99.06;98656.88;2290720;78;20927;-84
2022/10/01 05:23:19;;;;;;;48.95;24.60;;;;;;;11.08;99.08;98648.17;2281112;77;21357;-84
2022/10/01 05:26:20;;;;;;;49.80;25.32;;;;;;;11.13;98.86;98648.20;2280188;78;20959;-83
2022/10/01 05:29:20;;;;;;;41.15;24.52;;;;;;;11.17;98.92;98647.36;2279533;78;20954;-83
2022/10/01 05:32:21;;;;;;;36.00;20.40;;;;;;;11.18;98.59;98646.06;2279561;78;20929;-83
2022/10/01 05:35:21;;;;;;;41.68;22.67;;;;;;;11.19;97.00;98649.55;2279735;78;20894;-84
2022/10/01 05:38:21;;;;;;;39.00;23.05;;;;;;;11.22;97.62;98643.03;2279972;78;21238;-82
2022/10/01 05:41:22;;;;;;;38.45;23.50;;;;;;;11.24;97.23;98638.70;2280120;78;20871;-82
2022/10/01 05:44:22;;;;;;;37.48;22.25;;;;;;;11.28;97.16;98648.33;2280199;78;21059;-82
2022/10/01 05:47:23;;;;;;;33.80;21.45;;;;;;;11.28;96.71;98647.03;2280572;78;20898;-83
2022/10/01 05:50:24;;;;;;;32.75;20.48;;;;;;;11.32;96.11;98646.17;2280373;78;20929;-79
2022/10/01 05:53:24;;;;;;;27.75;19.95;;;;;;;11.32;95.33;98651.41;2280055;78;20961;-80
2022/10/01 05:56:24;;;;;;;32.28;19.90;;;;;;;11.37;95.44;98647.08;2280212;78;20946;-79
2022/10/01 05:59:24;;;;;;;32.08;21.33;;;;;;;11.46;95.44;98650.17;2280814;78;20894;-79
2022/10/01 06:02:25;;;;;;;33.28;20.70;;;;;;;11.45;94.23;98649.30;2281072;78;20949;-80
2022/10/01 06:05:25;;;;;;;29.77;19.57;;;;;;;11.44;95.04;98643.63;2280941;78;20906;-79
2022/10/01 06:08:27;;;;;;;28.00;19.87;;;;;;;11.52;94.88;98646.72;2281116;78;20941;-79
2022/10/01 06:11:26;;;;;;;34.58;21.00;;;;;;;11.59;94.90;98643.27;2281352;78;20978;-78
2022/10/01 06:14:26;;;;;;;35.28;21.50;;;;;;;11.62;94.50;98636.74;2281230;78;20907;-79
2022/10/01 06:17:27;;;;;;;35.45;21.57;;;;;;;11.66;94.56;98639.38;2281384;78;20890;-80
2022/10/01 06:20:27;;;;;;;32.48;19.87;;;;;;;11.72;94.19;98642.02;2281519;78;20945;-79
2022/10/01 06:23:28;;;;;;;27.80;19.32;;;;;;;11.77;93.60;98638.11;2290034;77;21324;-80
2022/10/01 06:26:28;;;;;;;24.27;16.80;;;;;;;11.78;93.27;98631.61;2290877;78;20864;-79
2022/10/01 06:29:28;;;;;;;24.65;15.18;;;;;;;11.87;92.46;98628.59;2290545;78;20914;-79
2022/10/01 06:32:29;;;;;;;22.25;14.73;;;;;;;11.95;91.19;98629.48;2290843;78;20927;-79
2022/10/01 06:35:29;;;;;;;23.65;15.80;;;;;;;12.03;91.05;98628.63;2291137;78;20913;-83
2022/10/01 06:38:30;;;;;;;24.82;16.27;;;;;;;12.18;90.64;98627.83;2290880;78;20979;-82
2022/10/01 06:41:30;;;;;;;23.45;17.67;;;;;;;12.24;90.13;98630.89;2290673;78;20899;-84
2022/10/01 06:44:30;;;;;;;27.82;18.27;;;;;;;12.28;89.83;98628.72;2291991;78;20903;-83
2022/10/01 06:47:31;;;;;;;26.25;17.55;;;;;;;12.30;89.19;98630.91;2291274;78;20931;-84
2022/10/01 06:50:31;;;;;;;28.20;18.82;;;;;;;12.31;88.64;98630.03;2291670;78;20971;-83
2022/10/01 06:53:32;;;;;;;29.92;19.65;;;;;;;12.39;89.39;98623.06;2291661;78;20986;-82
2022/10/01 06:56:32;;;;;;;27.10;18.77;;;;;;;12.54;89.43;98628.31;2291593;78;20905;-82
2022/10/01 06:59:35;;;;;;;29.30;19.07;;;;;;;12.69;88.55;98623.07;2291692;78;20888;-81
2022/10/01 07:02:33;;;;;;;24.72;18.45;;;;;;;12.75;88.22;98616.52;2291809;78;20878;-83
2022/10/01 07:05:33;;;;;;;25.82;17.98;;;;;;;12.92;88.55;98623.50;2291865;78;20885;-81
2022/10/01 07:08:34;;;;;;;26.68;20.37;;;;;;;13.06;88.43;98622.63;2291316;78;21277;-81
2022/10/01 07:11:34;;;;;;;28.60;19.40;;;;;;;13.16;87.76;98627.42;2291373;78;20917;-81
2022/10/01 07:14:36;;;;;;;29.32;20.52;;;;;;;13.24;87.31;98628.75;2291526;78;20904;-81
2022/10/01 07:17:36;;;;;;;27.75;19.10;;;;;;;13.24;87.03;98624.81;2291556;78;20904;-82
2022/10/01 07:20:38;;;;;;;29.80;19.80;;;;;;;13.34;86.21;98622.61;2291267;78;20963;-81
2022/10/01 07:23:37;;;;;;;31.33;20.35;;;;;;;13.35;85.89;98616.48;2291446;78;21355;-83
2022/10/01 07:26:37;;;;;;;27.58;18.98;;;;;;;13.51;85.85;98614.69;2291100;78;21280;-80
2022/10/01 07:29:38;;;;;;;27.82;20.20;;;;;;;13.65;84.95;98616.38;2290134;78;20927;-81
2022/10/01 07:32:38;;;;;;;26.75;19.45;;;;;;;13.78;84.65;98613.70;2290373;78;20939;-81
2022/10/01 07:35:39;;;;;;;23.95;17.95;;;;;;;13.88;83.98;98613.68;2290547;78;21284;-81
2022/10/01 07:38:40;;;;;;;28.52;20.00;;;;;;;13.88;82.62;98620.24;2290430;78;20927;-81
2022/10/01 07:41:41;;;;;;;26.57;21.40;;;;;;;13.94;83.18;98627.20;2290859;78;20909;-82
2022/10/01 07:44:42;;;;;;;28.60;20.02;;;;;;;13.93;82.27;98635.96;2290471;78;20928;-81
2022/10/01 07:47:42;;;;;;;28.23;21.55;;;;;;;13.90;81.79;98628.10;2290565;78;20947;-82
2022/10/01 07:50:43;;;;;;;25.10;18.87;;;;;;;13.82;81.59;98618.92;2291026;78;20956;-82
2022/10/01 07:53:43;;;;;;;25.30;18.98;;;;;;;13.93;81.78;98621.53;2290896;78;21003;-82
2022/10/01 07:56:43;;;;;;;27.93;20.25;;;;;;;14.08;81.69;98620.57;2289681;78;20932;-82
2022/10/01 07:59:43;;;;;;;28.20;21.55;;;;;;;14.07;81.75;98623.64;2290422;78;20932;-81
2022/10/01 08:02:44;;;;;;;25.80;20.50;;;;;;;14.06;81.59;98624.95;2290823;78;21237;-82
2022/10/01 08:05:46;;;;;;;30.68;20.52;;;;;;;14.02;81.64;98621.48;2290265;78;20908;-81
2022/10/01 08:08:45;;;;;;;28.00;21.00;;;;;;;14.09;82.01;98627.13;2290955;78;20908;-81
2022/10/01 08:11:47;;;;;;;30.77;21.48;;;;;;;14.16;82.30;98618.77;2290809;78;20936;-82
2022/10/01 08:14:48;;;;;;;30.80;21.52;;;;;;;14.22;82.14;98618.30;2291155;78;20931;-81
2022/10/01 08:17:49;;;;;;;27.80;21.40;;;;;;;14.33;82.18;98612.53;2290797;78;21004;-81
2022/10/01 08:20:49;;;;;;;28.52;19.90;;;;;;;14.69;81.72;98614.92;2290773;78;20935;-82
2022/10/01 08:23:49;;;;;;;25.17;18.95;;;;;;;15.06;80.33;98613.73;2290389;77;20967;-82
2022/10/01 08:26:50;;;;;;;25.90;19.10;;;;;;;15.27;79.35;98607.39;2290797;78;21354;-82
2022/10/01 08:29:50;;;;;;;26.60;19.00;;;;;;;15.26;77.97;98601.27;2290609;78;20940;-81
2022/10/01 08:32:51;;;;;;;25.57;18.82;;;;;;;15.17;77.92;98602.67;2291014;78;20956;-81
2022/10/01 08:35:51;;;;;;;22.85;18.85;;;;;;;15.17;77.19;98601.36;2290281;78;21337;-81
2022/10/01 08:38:51;;;;;;;24.92;17.67;;;;;;;14.95;76.64;98595.89;2290268;78;20907;-80
2022/10/01 08:41:52;;;;;;;23.80;17.20;;;;;;;14.95;77.10;98587.56;2290641;78;20905;-81
2022/10/01 08:44:52;;;;;;;27.32;18.07;;;;;;;15.12;77.09;98587.83;2289861;78;21595;-81
2022/10/01 08:47:53;;;;;;;21.97;17.10;;;;;;;15.09;76.99;98587.42;2289830;78;20881;-80
2022/10/01 08:50:53;;;;;;;24.63;18.37;;;;;;;14.98;76.66;98587.97;2289953;78;20951;-82
2022/10/01 08:53:53;;;;;;;26.75;18.67;;;;;;;14.97;76.67;98580.97;2290455;78;20947;-81
2022/10/01 08:56:54;;;;;;;27.40;20.50;;;;;;;15.01;76.47;98577.43;2291037;78;20920;-81
2022/10/01 08:59:54;;;;;;;26.87;19.52;;;;;;;15.14;75.86;98576.41;2291471;78;20924;-81
2022/10/01 09:02:57;;;;;;;24.37;19.02;;;;;;;15.24;75.55;98568.85;2291586;78;20916;-82
2022/10/01 09:05:55;;;;;;;29.50;20.00;;;;;;;15.35;75.91;98566.10;2291332;78;21125;-81
2022/10/01 09:08:55;;;;;;;28.10;19.20;;;;;;;15.41;75.07;98562.52;2291492;78;20864;-82
2022/10/01 09:11:58;;;;;;;27.80;18.02;;;;;;;15.44;75.38;98561.17;2291701;78;20877;-82
2022/10/01 09:14:56;;;;;;;20.80;15.48;;;;;;;15.47;75.50;98562.45;2291666;78;20881;-87
2022/10/01 09:17:57;;;;;;;23.73;18.42;;;;;;;15.52;77.44;98565.45;2292227;78;20912;-88
2022/10/01 09:20:57;;;;;;;22.80;19.15;;;;;;;16.70;82.00;98548.02;2291994;78;21256;-81
2022/10/01 09:23:57;;;;;;;23.90;17.80;;;;;;;17.42;75.25;98537.88;2282195;78;21372;-82
2022/10/01 09:26:59;;;;;;;24.87;17.67;;;;;;;17.01;71.98;98549.21;2281068;78;20883;-82
2022/10/01 09:30:01;;;;;;;26.05;19.35;;;;;;;16.65;72.17;98540.61;2280908;78;20949;-80
2022/10/01 09:32:59;;;;;;;32.08;18.87;;;;;;;16.43;72.49;98544.89;2281063;78;20929;-81
2022/10/01 09:36:00;;;;;;;23.22;18.95;;;;;;;16.21;72.56;98543.50;2281290;78;20894;-82
2022/10/01 09:38:59;;;;;;;22.67;18.00;;;;;;;16.01;72.41;98539.85;2281483;78;20906;-80
2022/10/01 09:42:00;;;;;;;25.23;18.85;;;;;;;15.73;72.18;98528.84;2281207;78;20910;-80
2022/10/01 09:45:00;;;;;;;31.35;20.60;;;;;;;15.52;73.08;98532.57;2281534;78;20899;-81
2022/10/01 09:48:02;;;;;;;26.52;18.40;;;;;;;15.41;73.37;98531.84;2282534;78;20902;-80
2022/10/01 09:51:01;;;;;;;26.87;18.48;;;;;;;15.39;74.30;98530.98;2282518;78;21336;-80
2022/10/01 09:54:02;;;;;;;28.57;19.07;;;;;;;15.41;74.24;98525.70;2282215;78;20953;-80
2022/10/01 09:57:02;;;;;;;29.48;19.00;;;;;;;15.39;74.66;98527.04;2282450;78;20887;-82
2022/10/01 10:00:08;;;;;;;29.42;20.45;;;;;;;15.42;74.26;98531.39;2282304;78;21330;-81
2022/10/01 10:03:05;;;;;;;33.80;21.35;;;;;;;15.46;74.24;98535.28;2260948;78;21049;-80
2022/10/01 10:06:05;;;;;;;32.08;20.88;;;;;;;15.49;74.01;98534.37;2282015;78;20949;-81
2022/10/01 10:09:05;;;;;;;31.85;20.68;;;;;;;15.56;73.71;98533.40;2282485;78;20906;-80
2022/10/01 10:12:09;;;;;;;30.35;21.80;;;;;;;15.67;73.12;98530.25;2281623;78;21235;-79
2022/10/01 10:15:06;;;;;;;29.48;21.10;;;;;;;15.70;73.58;98517.50;2281707;78;20942;-80
2022/10/01 10:18:07;;;;;;;27.10;21.20;;;;;;;15.83;73.68;98523.88;2281041;78;20958;-81
2022/10/01 10:21:07;;;;;;;27.80;20.90;;;;;;;15.92;73.37;98520.24;2281754;78;20914;-79
2022/10/01 10:24:07;;;;;;;31.87;20.88;;;;;;;16.01;72.58;98510.02;2254514;77;21007;-80
2022/10/01 10:27:08;;;;;;;33.20;23.12;;;;;;;15.93;73.14;98503.11;2249011;78;20929;-81
2022/10/01 10:30:08;;;;;;;26.02;20.35;;;;;;;15.89;73.56;98497.47;2249170;78;20936;-81
2022/10/01 10:33:10;;;;;;;28.00;21.65;;;;;;;15.89;73.68;98503.18;2249097;78;21269;-82
2022/10/01 10:36:09;;;;;;;27.62;22.77;;;;;;;15.87;73.34;98499.70;2248333;78;20981;-80
2022/10/01 10:39:09;;;;;;;28.38;21.12;;;;;;;15.89;73.50;98486.94;2248147;78;21079;-80
2022/10/01 10:42:10;;;;;;;27.42;21.23;;;;;;;15.88;73.33;98470.73;2247894;79;20900;-81
2022/10/01 10:45:11;;;;;;;31.17;22.77;;;;;;;16.04;73.07;98471.80;2247389;78;20920;-80
2022/10/01 10:48:11;;;;;;;30.82;23.15;;;;;;;16.17;72.64;98464.13;2247923;78;20908;-81
2022/10/01 10:51:11;;;;;;;36.63;24.67;;;;;;;16.23;72.43;98458.75;2247749;78;20963;-82
2022/10/01 10:54:11;;;;;;;47.65;24.70;;;;;;;16.19;72.58;98457.07;2247747;79;21012;-80
2022/10/01 10:57:13;;;;;;;32.05;24.55;;;;;;;16.21;73.11;98455.28;2248716;79;20931;-80
2022/10/01 11:00:14;;;;;;;55.43;26.12;;;;;;;16.22;72.55;98442.09;2248972;78;20896;-80
2022/10/01 11:03:13;;;;;;;69.03;28.25;;;;;;;16.21;72.64;98433.77;2248941;79;20885;-80
2022/10/01 11:06:14;;;;;;;39.58;25.52;;;;;;;16.30;72.58;98428.78;2249833;78;20865;-81
2022/10/01 11:09:14;;;;;;;39.92;25.57;;;;;;;16.42;72.38;98417.16;2249095;78;21343;-80
2022/10/01 11:12:15;;;;;;;34.23;25.35;;;;;;;16.64;72.35;98413.70;2248891;78;20908;-80
2022/10/01 11:15:15;;;;;;;38.55;25.68;;;;;;;16.89;71.80;98401.81;2248723;78;20896;-80
2022/10/01 11:18:15;;;;;;;37.17;25.05;;;;;;;17.05;71.36;98390.49;2248698;78;21560;-80
2022/10/01 11:21:16;;;;;;;39.05;25.10;;;;;;;17.31;71.07;98384.65;2248770;78;20908;-80
2022/10/01 11:24:16;;;;;;;34.85;26.20;;;;;;;17.55;69.86;98376.20;2274148;77;21009;-80
2022/10/01 11:27:17;;;;;;;37.10;25.40;;;;;;;17.74;69.50;98374.02;2281003;78;21305;-79
2022/10/01 11:30:17;;;;;;;34.85;24.60;;;;;;;17.78;69.56;98371.72;2281861;78;20934;-81
2022/10/01 11:33:17;;;;;;;29.30;22.13;;;;;;;17.61;69.07;98368.59;2281991;78;20937;-79
2022/10/01 11:36:18;;;;;;;33.95;23.02;;;;;;;17.51;69.58;98363.98;2281598;78;21294;-80
2022/10/01 11:39:18;;;;;;;30.75;23.57;;;;;;;17.48;69.57;98357.01;2281701;78;20859;-80
2022/10/01 11:42:19;;;;;;;28.27;22.35;;;;;;;17.38;69.38;98351.98;2281142;78;20923;-80
2022/10/01 11:45:20;;;;;;;32.97;21.90;;;;;;;17.37;69.23;98343.66;2281066;78;20942;-79
2022/10/01 11:48:22;;;;;;;32.65;22.07;;;;;;;17.37;69.25;98341.02;2280802;78;21326;-80
2022/10/01 11:51:20;;;;;;;31.80;23.10;;;;;;;17.35;69.03;98336.23;2280313;78;20957;-80
2022/10/01 11:54:20;;;;;;;33.20;23.60;;;;;;;17.22;69.40;98340.88;2280800;78;20961;-82
2022/10/01 12:00:39;;;;;;;30.85;22.42;;;;;;;17.33;70.25;98328.77;2281823;78;21262;-82
2022/10/01 12:03:40;;;;;;;29.32;20.50;;;;;;;17.41;70.02;98325.08;2281853;78;20882;-82
2022/10/01 12:06:40;;;;;;;26.45;21.65;;;;;;;17.46;69.61;98324.97;2282061;78;20882;-82
2022/10/01 12:09:40;;;;;;;31.00;21.70;;;;;;;17.63;71.99;98320.14;2282205;78;20953;-82
2022/10/01 12:12:41;;;;;;;26.65;19.90;;;;;;;18.37;71.96;98309.89;2281822;78;21270;-82
2022/10/01 12:15:41;;;;;;;25.82;18.52;;;;;;;19.02;71.15;98301.84;2281477;78;20914;-84
2022/10/01 12:18:42;;;;;;;26.37;19.73;;;;;;;19.46;69.66;98296.97;2282088;78;20922;-83
2022/10/01 12:21:42;;;;;;;24.52;17.90;;;;;;;19.66;68.22;98291.91;2281445;78;20894;-81
2022/10/01 12:24:43;;;;;;;25.68;17.85;;;;;;;19.72;66.72;98289.92;2253089;78;21340;-82
2022/10/01 12:27:43;;;;;;;25.88;18.07;;;;;;;19.88;68.27;98288.08;2249130;78;21071;-82
2022/10/01 12:30:44;;;;;;;24.87;17.98;;;;;;;20.15;67.03;98277.01;2248501;78;20900;-82
2022/10/01 12:33:44;;;;;;;21.15;16.97;;;;;;;20.26;65.67;98277.48;2248459;78;20888;-83
2022/10/01 12:36:44;;;;;;;21.80;16.23;;;;;;;20.18;65.42;98279.09;2248446;78;20905;-83
2022/10/01 12:39:45;;;;;;;21.05;16.07;;;;;;;20.20;65.68;98273.27;2248409;78;20872;-81
2022/10/01 12:42:45;;;;;;;21.45;16.15;;;;;;;20.23;65.30;98277.14;2248612;78;21296;-82
2022/10/01 12:45:45;;;;;;;22.62;16.48;;;;;;;20.24;65.61;98272.24;2249062;78;20896;-83
2022/10/01 12:48:46;;;;;;;21.65;15.95;;;;;;;20.35;65.76;98266.09;2249207;78;20932;-82
2022/10/01 12:51:51;;;;;;;16.95;14.78;;;;;;;20.37;65.29;98266.03;2249476;78;20928;-82
2022/10/01 12:54:47;;;;;;;17.40;15.28;;;;;;;20.24;64.88;98265.62;2249304;78;20920;-82
2022/10/01 12:57:47;;;;;;;16.97;13.90;;;;;;;20.16;65.49;98264.16;2249801;78;20896;-83
2022/10/01 13:00:47;;;;;;;17.32;14.30;;;;;;;20.14;65.03;98252.30;2249614;78;20889;-83
2022/10/01 13:03:48;;;;;;;20.12;14.47;;;;;;;20.11;65.43;98248.43;2249642;78;20896;-83
2022/10/01 13:06:48;;;;;;;18.87;13.03;;;;;;;20.01;66.04;98239.09;2249729;78;20913;-83
2022/10/01 13:09:49;;;;;;;20.23;13.68;;;;;;;19.95;66.03;98239.30;2249589;79;21280;-83
2022/10/01 13:12:49;;;;;;;16.17;14.00;;;;;;;19.81;65.96;98237.11;2249576;79;20928;-83
2022/10/01 13:15:49;;;;;;;131.67;23.10;;;;;;;19.64;65.93;98227.55;2249968;78;20896;-84
2022/10/01 13:18:50;;;;;;;109.48;20.70;;;;;;;19.48;65.25;98222.34;2250121;78;21438;-84
2022/10/01 13:21:52;;;;;;;126.97;22.87;;;;;;;19.19;67.38;98224.63;2249803;79;20886;-84
2022/10/01 13:24:51;;;;;;;78.70;20.52;;;;;;;19.22;68.11;98221.89;2276352;78;21009;-84
2022/10/01 13:27:51;;;;;;;102.62;19.98;;;;;;;19.25;67.48;98220.47;2282371;78;20938;-84
2022/10/01 13:30:51;;;;;;;85.45;19.27;;;;;;;19.25;68.82;98220.47;2282863;78;20918;-85
2022/10/01 13:33:52;;;;;;;68.17;18.55;;;;;;;19.15;68.28;98217.25;2282527;78;21325;-85
2022/10/01 13:36:52;;;;;;;92.97;19.07;;;;;;;19.02;68.59;98212.78;2282335;78;20922;-84
2022/10/01 13:39:53;;;;;;;62.55;18.45;;;;;;;18.98;69.00;98216.44;2282266;78;20934;-85
2022/10/01 13:42:53;;;;;;;55.78;17.48;;;;;;;18.90;69.35;98210.98;2282366;78;20859;-85
2022/10/01 13:45:53;;;;;;;99.62;21.52;;;;;;;18.84;69.34;98212.05;2282257;78;21259;-84
2022/10/01 13:48:54;;;;;;;95.77;20.30;;;;;;;18.79;70.38;98207.36;2282579;78;20903;-84
2022/10/01 13:51:54;;;;;;;41.92;17.02;;;;;;;18.82;69.95;98204.62;2282656;78;20949;-84